Time;durP1;ratioP1;P1;durP2;ratioP2;P2;SDS_P1;SDS_P2;PMS_P1;PMS_P2;Temp;Humidity;BMP_temperature;BMP_pressure;BME280_temperature;BME280_humidity;BME280_pressure;Samples;Min_cycle;Max_cycle;Signal;HPM_P1;HPM_P2
2023/04/22 00:01:41;;;;;;;;;31.25;28.50;;;;;13.21;63.84;100404.47;5017123;28;45281;-75
2023/04/22 00:04:07;;;;;;;;;30.00;23.50;;;;;13.18;64.04;100404.53;5017905;28;45590;-75
2023/04/22 00:06:33;;;;;;;;;25.50;22.00;;;;;13.15;64.35;100401.88;5010865;28;48224;-75
2023/04/22 00:08:58;;;;;;;;;21.00;17.00;;;;;13.11;64.68;100414.28;5013768;28;45532;-75
2023/04/22 00:11:23;;;;;;;;;27.00;26.00;;;;;13.06;64.79;100413.44;4996385;28;45447;-75
2023/04/22 00:13:49;;;;;;;;;26.50;22.00;;;;;13.01;64.94;100415.25;5014763;28;61638;-74
2023/04/22 00:16:15;;;;;;;;;34.50;33.25;;;;;12.99;65.57;100412.56;5016715;28;58747;-75
2023/04/22 00:18:40;;;;;;;;;36.25;31.25;;;;;12.96;65.67;100414.38;5029445;28;45460;-75
2023/04/22 00:21:06;;;;;;;;;27.75;27.50;;;;;12.96;65.76;100422.31;5008552;28;45793;-75
2023/04/22 00:23:32;;;;;;;;;28.00;22.00;;;;;12.91;65.80;100422.34;5016311;28;45678;-75
2023/04/22 00:25:57;;;;;;;;;20.50;19.25;;;;;12.86;66.22;100426.78;4999008;28;46662;-75
2023/04/22 00:28:22;;;;;;;;;23.00;21.00;;;;;12.84;66.74;100420.63;5016937;28;56399;-75
2023/04/22 00:30:48;;;;;;;;;24.50;20.00;;;;;12.77;66.99;100409.16;5010600;28;64809;-75
2023/04/22 00:33:13;;;;;;;;;23.50;20.50;;;;;12.76;67.16;100402.09;5018505;28;57986;-75
2023/04/22 00:35:38;;;;;;;;;20.75;19.50;;;;;12.74;67.43;100406.53;5028641;28;71453;-74
2023/04/22 00:38:04;;;;;;;;;27.00;20.75;;;;;12.70;68.05;100410.09;5015707;28;64298;-74
2023/04/22 00:40:29;;;;;;;;;22.00;22.00;;;;;12.69;68.15;100415.41;5017292;28;45783;-75
2023/04/22 00:42:55;;;;;;;;;20.75;19.00;;;;;12.65;68.24;100414.53;5017122;28;45294;-74
2023/04/22 00:45:21;;;;;;;;;21.75;21.25;;;;;12.63;68.71;100415.44;5026325;28;46774;-75
2023/04/22 00:47:46;;;;;;;;;27.00;23.00;;;;;12.60;69.05;100421.59;5016368;28;45467;-74
2023/04/22 00:50:12;;;;;;;;;26.50;21.25;;;;;12.55;68.94;100418.97;5008482;28;45577;-75
2023/04/22 00:52:37;;;;;;;;;21.50;19.25;;;;;12.54;69.46;100411.91;5017278;28;45507;-75
2023/04/22 00:55:04;;;;;;;;;23.50;19.25;;;;;12.51;69.65;100406.63;4998378;28;60352;-74
2023/04/22 00:57:30;;;;;;;;;25.50;22.25;;;;;12.47;69.86;100401.38;5016793;28;45258;-75
2023/04/22 00:59:55;;;;;;;;;19.25;16.50;;;;;12.44;70.52;100402.25;4998106;28;45363;-74
2023/04/22 01:02:21;;;;;;;;;23.50;17.00;;;;;12.43;70.69;100396.97;5016681;28;53801;-75
2023/04/22 01:04:46;;;;;;;;;23.25;18.75;;;;;12.42;71.29;100390.78;5016117;28;66517;-74
2023/04/22 01:07:12;;;;;;;;;26.00;20.25;;;;;12.42;71.19;100387.25;5015442;28;45317;-74
2023/04/22 01:09:38;;;;;;;;;25.50;22.25;;;;;12.42;71.18;100376.66;5011226;28;64342;-75
2023/04/22 01:12:04;;;;;;;;;25.25;20.00;;;;;12.40;71.66;100381.06;5027071;28;45485;-74
2023/04/22 01:14:30;;;;;;;;;20.25;17.50;;;;;12.37;72.05;100381.09;5016293;28;46034;-75
2023/04/22 01:16:56;;;;;;;;;20.50;18.75;;;;;12.36;72.36;100384.59;5015691;28;45483;-75
2023/04/22 01:19:22;;;;;;;;;24.00;20.25;;;;;12.35;72.58;100374.91;5015400;28;45526;-75
2023/04/22 01:21:49;;;;;;;;;22.50;17.75;;;;;12.36;72.75;100371.38;5029640;28;46558;-74
2023/04/22 01:24:15;;;;;;;;;25.25;22.25;;;;;12.39;72.91;100363.44;5016113;28;46669;-75
2023/04/22 01:26:41;;;;;;;;;24.50;21.25;;;;;12.42;73.00;100358.13;5016586;28;45301;-74
2023/04/22 01:29:06;;;;;;;;;23.00;18.25;;;;;12.41;73.02;100343.09;5023331;28;45466;-75
2023/04/22 01:31:32;;;;;;;;;24.25;18.25;;;;;12.40;73.57;100346.66;5032571;28;45498;-75
2023/04/22 01:33:58;;;;;;;;;24.25;21.00;;;;;12.40;73.53;100352.81;5026905;28;45659;-75
2023/04/22 01:36:23;;;;;;;;;25.00;21.75;;;;;12.38;74.21;100340.50;5025662;28;45393;-75
2023/04/22 01:38:49;;;;;;;;;23.50;20.50;;;;;12.40;73.91;100341.34;5013446;28;63170;-74
2023/04/22 01:41:15;;;;;;;;;23.00;21.50;;;;;12.40;73.91;100334.28;5016512;28;45432;-74
2023/04/22 01:43:41;;;;;;;;;22.75;20.75;;;;;12.40;73.83;100339.59;5014221;28;45944;-75
2023/04/22 01:46:07;;;;;;;;;23.25;20.75;;;;;12.40;73.83;100339.59;5006784;28;45488;-74
2023/04/22 01:48:33;;;;;;;;;30.25;20.00;;;;;12.41;74.21;100335.16;5016251;28;45276;-74
2023/04/22 01:50:59;;;;;;;;;21.50;17.75;;;;;12.39;74.50;100329.88;5013749;28;45311;-74
2023/04/22 01:53:24;;;;;;;;;20.00;17.25;;;;;12.45;74.78;100329.84;5015176;28;56522;-75
2023/04/22 01:55:49;;;;;;;;;22.75;18.00;;;;;12.48;75.02;100327.19;5028963;28;64599;-74
2023/04/22 01:58:15;;;;;;;;;24.25;21.00;;;;;12.47;74.99;100311.34;5007358;28;45488;-74
2023/04/22 02:00:40;;;;;;;;;22.50;19.75;;;;;12.49;75.02;100306.91;5016085;28;47927;-74
2023/04/22 02:03:06;;;;;;;;;20.75;18.75;;;;;12.50;75.22;100303.34;5015312;28;46540;-73
2023/04/22 02:05:31;;;;;;;;;23.00;18.75;;;;;12.51;75.40;100291.88;5015741;28;67666;-74
2023/04/22 02:07:56;;;;;;;;;21.75;18.50;;;;;12.51;75.37;100278.63;5015774;28;45301;-74
2023/04/22 02:10:22;;;;;;;;;23.00;20.75;;;;;12.52;75.45;100278.63;5009596;28;45498;-74
2023/04/22 02:12:47;;;;;;;;;20.75;18.75;;;;;12.53;75.01;100287.47;5015510;28;46010;-75
2023/04/22 02:15:13;;;;;;;;;27.25;19.25;;;;;12.51;75.24;100290.09;5015084;28;48962;-74
2023/04/22 02:17:41;;;;;;;;;19.75;19.75;;;;;12.46;75.52;100291.88;5027026;28;58105;-74
2023/04/22 02:20:07;;;;;;;;;25.25;19.50;;;;;12.46;75.91;100313.06;5013989;28;45596;-74
2023/04/22 02:22:32;;;;;;;;;17.75;17.25;;;;;12.45;76.10;100299.84;5015407;28;46811;-75
2023/04/22 02:24:57;;;;;;;;;27.25;18.00;;;;;12.43;75.84;100301.63;5015085;28;45361;-74
2023/04/22 02:27:23;;;;;;;;;25.75;18.75;;;;;12.42;75.91;100295.47;5014982;28;49530;-74
2023/04/22 02:29:48;;;;;;;;;24.00;18.50;;;;;12.39;75.99;100286.66;5013569;28;45613;-74
2023/04/22 02:32:16;;;;;;;;;21.75;16.25;;;;;12.39;76.32;100278.69;5016832;28;67431;-74
2023/04/22 02:34:41;;;;;;;;;20.00;16.75;;;;;12.41;77.11;100282.22;5013163;28;45512;-75
2023/04/22 02:37:06;;;;;;;;;22.75;19.00;;;;;12.42;76.91;100284.88;5018803;28;45375;-75
2023/04/22 02:39:31;;;;;;;;;18.75;17.00;;;;;12.42;76.96;100287.53;5012683;28;45426;-74
2023/04/22 02:41:57;;;;;;;;;23.00;15.25;;;;;12.46;76.75;100306.91;5018413;28;60761;-74
2023/04/22 02:44:22;;;;;;;;;20.75;16.75;;;;;12.43;76.99;100302.50;5016846;28;63906;-73
2023/04/22 02:46:47;;;;;;;;;19.00;17.00;;;;;12.44;77.07;100306.03;5018427;28;61556;-74
2023/04/22 02:49:13;;;;;;;;;16.75;16.00;;;;;12.44;77.56;100301.63;5018129;28;45203;-74
2023/04/22 02:51:38;;;;;;;;;27.00;18.25;;;;;12.45;77.63;100306.03;5018287;28;46094;-74
2023/04/22 02:54:04;;;;;;;;;21.25;17.00;;;;;12.46;77.82;100291.88;5008782;28;45274;-75
2023/04/22 02:56:30;;;;;;;;;23.00;22.25;;;;;12.46;77.62;100283.94;5029301;28;45528;-74
2023/04/22 02:58:55;;;;;;;;;16.75;16.50;;;;;12.46;77.75;100291.00;5019111;28;45990;-74
2023/04/22 03:01:21;;;;;;;;;27.50;20.00;;;;;12.45;77.99;100282.19;5030921;28;62563;-74
2023/04/22 03:03:46;;;;;;;;;21.00;19.50;;;;;12.48;78.09;100282.19;5015934;28;63396;-74
2023/04/22 03:06:11;;;;;;;;;17.75;16.00;;;;;12.50;78.34;100280.41;5028299;28;57427;-74
2023/04/22 03:08:36;;;;;;;;;20.50;19.25;;;;;12.51;78.77;100271.56;5018048;28;54220;-74
2023/04/22 03:11:02;;;;;;;;;24.25;19.75;;;;;12.55;78.39;100272.44;5017289;28;69873;-74
2023/04/22 03:13:28;;;;;;;;;25.25;18.25;;;;;12.59;78.46;100261.81;5029102;28;46210;-74
2023/04/22 03:15:53;;;;;;;;;23.50;20.00;;;;;12.60;78.60;100260.03;5017845;28;63704;-74
2023/04/22 03:18:18;;;;;;;;;19.50;17.75;;;;;12.61;78.52;100251.19;5017914;28;61814;-74
2023/04/22 03:20:44;;;;;;;;;22.00;19.25;;;;;12.60;78.77;100238.84;5014383;28;48464;-74
2023/04/22 03:23:09;;;;;;;;;22.50;20.25;;;;;12.67;79.20;100255.56;5031328;28;45467;-74
2023/04/22 03:25:35;;;;;;;;;25.75;21.25;;;;;12.67;79.04;100239.69;5018362;28;45188;-73
2023/04/22 03:28:01;;;;;;;;;24.50;23.50;;;;;12.68;78.64;100226.44;5000125;28;45572;-75
2023/04/22 03:30:26;;;;;;;;;31.00;26.00;;;;;12.71;78.94;100237.00;5017463;28;45522;-74
2023/04/22 03:32:52;;;;;;;;;25.25;21.25;;;;;12.72;79.05;100232.59;5017182;28;56703;-74
2023/04/22 03:35:18;;;;;;;;;29.50;26.50;;;;;12.75;79.29;100219.31;5027293;28;45618;-75
2023/04/22 03:37:44;;;;;;;;;27.00;25.00;;;;;12.76;79.46;100210.47;5018102;28;45523;-74
2023/04/22 03:40:10;;;;;;;;;31.00;28.00;;;;;12.80;79.58;100215.75;5016919;28;45518;-74
2023/04/22 03:42:35;;;;;;;;;32.50;27.00;;;;;12.79;79.41;100206.06;5016435;28;45568;-75
2023/04/22 03:45:00;;;;;;;;;25.75;23.00;;;;;12.82;79.58;100218.38;5008380;28;45467;-74
2023/04/22 03:47:26;;;;;;;;;25.00;22.00;;;;;12.85;79.68;100239.56;5017361;28;60071;-75
2023/04/22 03:49:51;;;;;;;;;28.50;23.00;;;;;12.85;80.07;100245.75;5016348;28;68786;-75
2023/04/22 03:52:16;;;;;;;;;30.25;24.25;;;;;12.88;80.10;100249.25;5017116;28;60427;-74
2023/04/22 03:54:42;;;;;;;;;27.00;22.00;;;;;12.91;80.00;100235.97;5026704;28;55544;-75
2023/04/22 03:57:07;;;;;;;;;28.75;25.50;;;;;12.91;79.96;100228.91;5004693;28;45550;-75
2023/04/22 03:59:32;;;;;;;;;28.50;23.25;;;;;12.91;80.22;100220.09;5016644;28;45713;-75
2023/04/22 04:01:58;;;;;;;;;23.75;20.75;;;;;12.91;80.50;100220.97;5015619;28;45514;-74
2023/04/22 04:04:23;;;;;;;;;27.00;22.25;;;;;12.91;80.91;100214.78;5011337;28;45431;-74
2023/04/22 04:06:49;;;;;;;;;26.75;26.75;;;;;12.93;81.53;100210.34;5033580;28;45454;-75
2023/04/22 04:09:14;;;;;;;;;27.75;26.75;;;;;12.93;81.50;100197.09;5017228;28;45529;-74
2023/04/22 04:11:39;;;;;;;;;32.00;24.25;;;;;12.95;81.12;100193.56;5016805;28;66694;-74
2023/04/22 04:14:05;;;;;;;;;20.00;18.25;;;;;12.95;81.26;100197.97;5017619;28;45257;-75
2023/04/22 04:16:30;;;;;;;;;27.00;21.75;;;;;12.96;81.46;100221.81;5016504;28;61001;-74
2023/04/22 04:18:56;;;;;;;;;24.25;22.25;;;;;12.99;81.78;100220.88;5017077;28;55379;-75
2023/04/22 04:21:21;;;;;;;;;24.75;23.75;;;;;12.98;82.45;100188.19;5016118;28;65991;-75
2023/04/22 04:23:46;;;;;;;;;29.00;23.75;;;;;13.00;83.20;100167.00;5016507;28;61091;-75
2023/04/22 04:26:13;;;;;;;;;26.75;23.50;;;;;13.01;83.93;100152.88;5017230;28;45192;-74
2023/04/22 04:28:40;;;;;;;;;28.25;25.25;;;;;13.01;84.18;100129.00;5006641;28;47573;-74
2023/04/22 04:31:05;;;;;;;;;25.25;22.00;;;;;13.02;85.54;100122.81;5017331;28;45428;-74
2023/04/22 04:33:31;;;;;;;;;24.50;22.50;;;;;13.01;86.78;100135.19;5018520;28;45463;-75
2023/04/22 04:35:58;;;;;;;;;23.50;22.00;;;;;13.01;87.31;100134.31;5031808;28;45385;-74
2023/04/22 04:38:25;;;;;;;;;32.25;24.75;;;;;13.00;88.47;100152.00;5010169;28;46868;-74
2023/04/22 04:40:51;;;;;;;;;31.25;27.50;;;;;13.03;89.67;100170.50;5017100;28;45489;-74
2023/04/22 04:43:17;;;;;;;;;31.50;25.50;;;;;13.04;90.25;100193.44;5016956;28;45275;-75
2023/04/22 04:45:45;;;;;;;;;26.50;25.00;;;;;13.06;90.89;100204.06;5016036;28;45442;-74
2023/04/22 04:48:14;;;;;;;;;31.25;26.00;;;;;13.04;92.21;100201.41;5010847;28;46033;-74
2023/04/22 04:50:42;;;;;;;;;31.25;22.50;;;;;13.05;92.20;100179.31;5012888;28;45507;-74
2023/04/22 04:53:11;;;;;;;;;33.25;27.00;;;;;13.05;92.59;100151.94;5016273;28;45427;-74
2023/04/22 04:55:37;;;;;;;;;27.75;24.50;;;;;13.06;93.65;100141.31;5017012;28;45528;-74
2023/04/22 04:58:03;;;;;;;;;27.00;24.75;;;;;13.03;94.15;100121.91;4998746;28;48350;-74
2023/04/22 05:00:28;;;;;;;;;31.00;26.25;;;;;13.04;95.70;100121.88;5016337;28;59035;-74
2023/04/22 05:02:54;;;;;;;;;30.25;23.00;;;;;13.02;97.48;100133.41;5030837;28;45529;-73
2023/04/22 05:05:19;;;;;;;;;30.50;26.25;;;;;13.04;99.10;100136.91;5015702;28;61062;-74
2023/04/22 05:07:44;;;;;;;;;31.50;27.25;;;;;13.04;100.00;100139.56;5015597;28;64408;-74
2023/04/22 05:10:10;;;;;;;;;33.00;24.25;;;;;13.06;100.00;100141.31;5015338;28;54432;-74
2023/04/22 05:12:36;;;;;;;;;37.75;28.50;;;;;13.05;100.00;100126.31;5016864;28;45465;-74
2023/04/22 05:15:01;;;;;;;;;33.75;30.50;;;;;13.04;100.00;100113.06;5031777;28;45554;-74
2023/04/22 05:17:27;;;;;;;;;35.75;29.25;;;;;13.01;100.00;100121.06;5016537;28;46638;-74
2023/04/22 05:19:52;;;;;;;;;34.00;30.00;;;;;13.02;100.00;100134.28;5015821;28;45461;-75
2023/04/22 05:22:18;;;;;;;;;33.50;26.50;;;;;12.98;100.00;100140.50;5015503;28;55562;-74
2023/04/22 05:24:43;;;;;;;;;39.25;28.00;;;;;12.99;100.00;100173.19;5012252;28;45556;-74
2023/04/22 05:27:09;;;;;;;;;31.75;28.25;;;;;12.99;100.00;100159.94;5024253;28;45865;-74
2023/04/22 05:29:35;;;;;;;;;32.25;24.75;;;;;13.01;100.00;100176.72;5015998;28;45449;-74
2023/04/22 05:32:00;;;;;;;;;35.75;27.50;;;;;13.02;100.00;100174.03;5016609;28;45435;-74
2023/04/22 05:34:26;;;;;;;;;28.50;26.00;;;;;13.03;100.00;100166.97;5026496;28;45553;-74
2023/04/22 05:36:52;;;;;;;;;24.75;20.00;;;;;13.06;100.00;100162.53;5015534;28;69000;-74
2023/04/22 05:39:17;;;;;;;;;27.75;25.50;;;;;13.03;100.00;100178.44;5014902;28;49918;-74
2023/04/22 05:44:17;;;;;;;;;26.50;24.25;;;;;13.09;100.00;100242.00;5026158;28;46725;-74
2023/04/22 05:46:44;;;;;;;;;37.25;26.75;;;;;13.08;100.00;100261.44;5031622;28;64233;-74
2023/04/22 05:49:09;;;;;;;;;30.75;26.75;;;;;13.08;100.00;100240.25;5016079;28;45416;-75
2023/04/22 05:51:34;;;;;;;;;36.00;28.25;;;;;13.08;100.00;100237.59;5036131;28;45349;-75
2023/04/22 05:54:00;;;;;;;;;26.25;23.75;;;;;13.06;100.00;100231.44;5034348;28;58087;-75
2023/04/22 05:56:25;;;;;;;;;29.75;24.00;;;;;12.99;100.00;100212.94;5035082;28;64985;-74
2023/04/22 05:58:50;;;;;;;;;36.00;27.00;;;;;12.96;100.00;100197.94;5015544;28;66692;-74
2023/04/22 06:01:16;;;;;;;;;32.75;27.75;;;;;12.90;100.00;100181.25;5034931;28;62599;-74
2023/04/22 06:03:41;;;;;;;;;30.25;25.25;;;;;12.90;100.00;100183.88;5035596;28;58513;-74
2023/04/22 06:06:07;;;;;;;;;33.00;27.00;;;;;12.91;100.00;100170.63;5037966;28;64724;-75
2023/04/22 06:08:32;;;;;;;;;30.00;26.00;;;;;12.90;100.00;100168.88;5021208;28;45483;-75
2023/04/22 06:10:57;;;;;;;;;34.00;29.00;;;;;12.91;100.00;100167.09;5039162;28;52614;-75
2023/04/22 06:13:23;;;;;;;;;33.50;29.25;;;;;12.91;100.00;100170.63;5015561;28;50909;-74
2023/04/22 06:15:48;;;;;;;;;34.00;28.00;;;;;12.93;100.00;100191.78;5039391;28;46425;-74
2023/04/22 06:18:13;;;;;;;;;32.25;28.50;;;;;12.95;100.00;100208.56;5037946;28;62484;-74
2023/04/22 06:20:39;;;;;;;;;34.75;27.50;;;;;12.96;100.00;100208.56;5038580;28;51097;-74
2023/04/22 06:23:04;;;;;;;;;32.25;27.50;;;;;12.96;100.00;100199.72;5038645;28;45431;-74
2023/04/22 06:25:30;;;;;;;;;30.50;28.00;;;;;12.99;100.00;100195.25;5020619;28;52554;-74
2023/04/22 06:27:57;;;;;;;;;27.75;26.25;;;;;12.97;100.00;100175.84;5021205;28;45424;-75
2023/04/22 06:30:22;;;;;;;;;30.50;27.50;;;;;13.02;100.00;100192.59;5038565;28;45339;-74
2023/04/22 06:32:48;;;;;;;;;40.75;28.25;;;;;13.01;100.00;100195.28;5039123;28;45328;-74
2023/04/22 06:35:13;;;;;;;;;35.00;28.00;;;;;13.06;100.00;100209.34;5038988;28;45842;-73
2023/04/22 06:37:38;;;;;;;;;31.00;28.75;;;;;13.05;100.00;100208.47;5038390;28;55918;-74
2023/04/22 06:40:04;;;;;;;;;34.25;29.00;;;;;13.07;100.00;100213.75;5039516;28;45285;-74
2023/04/22 06:42:30;;;;;;;;;40.75;32.00;;;;;13.06;100.00;100196.97;5038664;28;45522;-75
2023/04/22 06:44:55;;;;;;;;;31.50;28.00;;;;;13.10;100.00;100203.09;5038331;28;46458;-74
2023/04/22 06:47:20;;;;;;;;;41.50;31.00;;;;;13.12;100.00;100196.03;5019466;28;67404;-74
2023/04/22 06:49:46;;;;;;;;;29.25;27.25;;;;;13.15;100.00;100197.75;5038347;28;45513;-75
2023/04/22 06:52:11;;;;;;;;;36.50;32.75;;;;;13.16;100.00;100194.25;5019270;28;45488;-75
2023/04/22 06:54:37;;;;;;;;;31.50;28.00;;;;;13.15;100.00;100197.75;5037113;28;69908;-74
2023/04/22 06:57:02;;;;;;;;;35.75;29.50;;;;;13.19;100.00;100194.19;5037872;28;45476;-74
2023/04/22 06:59:28;;;;;;;;;38.50;28.25;;;;;13.19;100.00;100191.56;5019470;28;45546;-76
2023/04/22 07:01:53;;;;;;;;;34.25;29.25;;;;;13.22;100.00;100188.91;5037823;28;59516;-74
2023/04/22 07:04:18;;;;;;;;;33.75;27.75;;;;;13.26;100.00;100196.81;5036068;28;65966;-74
2023/04/22 07:06:44;;;;;;;;;35.00;31.00;;;;;13.26;100.00;100196.81;5036985;28;62347;-76
2023/04/22 07:09:10;;;;;;;;;36.25;28.75;;;;;13.27;100.00;100190.63;5037865;28;45424;-74
2023/04/22 07:11:35;;;;;;;;;32.50;26.75;;;;;13.25;100.00;100178.25;5037354;28;45633;-73
2023/04/22 07:14:00;;;;;;;;;37.50;31.50;;;;;13.26;100.00;100174.72;5020248;28;45597;-73
2023/04/22 07:16:27;;;;;;;;;35.75;28.25;;;;;13.26;100.00;100175.63;5018587;28;65147;-74
2023/04/22 07:18:52;;;;;;;;;41.50;32.75;;;;;13.21;100.00;100176.50;5038005;28;45442;-73
2023/04/22 07:21:18;;;;;;;;;28.25;25.75;;;;;13.22;100.00;100187.13;5037043;28;45379;-73
2023/04/22 07:23:43;;;;;;;;;31.25;26.25;;;;;13.20;100.00;100193.31;5017305;28;45510;-74
2023/04/22 07:26:08;;;;;;;;;28.00;25.75;;;;;13.21;100.00;100189.75;5035560;28;52841;-73
2023/04/22 07:28:34;;;;;;;;;36.00;28.00;;;;;13.20;100.00;100194.19;5031265;28;57990;-74
2023/04/22 07:30:59;;;;;;;;;27.75;25.75;;;;;13.19;100.00;100186.25;5034904;28;46929;-74
2023/04/22 07:33:24;;;;;;;;;25.75;25.00;;;;;13.21;100.00;100192.41;5018114;28;70063;-73
2023/04/22 07:35:50;;;;;;;;;34.50;31.25;;;;;13.23;100.00;100186.25;5034480;28;66612;-73
2023/04/22 07:38:15;;;;;;;;;30.00;28.25;;;;;13.27;100.00;100184.44;5017903;28;54273;-73
2023/04/22 07:40:40;;;;;;;;;28.50;28.50;;;;;13.30;100.00;100179.09;5015967;28;45531;-74
2023/04/22 07:43:06;;;;;;;;;30.25;29.25;;;;;13.34;100.00;100175.53;5035131;28;61980;-73
2023/04/22 07:45:31;;;;;;;;;28.25;27.00;;;;;13.36;100.00;100189.63;5018895;28;45842;-74
2023/04/22 07:47:57;;;;;;;;;33.50;25.00;;;;;13.33;100.00;100179.94;5019891;28;59703;-75
2023/04/22 07:50:22;;;;;;;;;26.50;24.50;;;;;13.28;100.00;100186.19;5034819;28;45415;-74
2023/04/22 07:52:48;;;;;;;;;28.25;25.00;;;;;13.22;100.00;100178.31;5023475;28;66143;-73
2023/04/22 07:55:13;;;;;;;;;25.25;25.25;;;;;13.15;100.00;100174.78;5036831;28;54890;-74
2023/04/22 07:57:38;;;;;;;;;30.75;29.25;;;;;13.16;100.00;100178.34;5018412;28;45453;-74
2023/04/22 08:00:08;;;;;;;;;27.00;25.50;;;;;13.10;100.00;100177.50;5037071;28;45555;-74
2023/04/22 08:02:34;;;;;;;;;32.25;29.00;;;;;13.11;100.00;100184.56;5014983;28;48430;-74
2023/04/22 08:04:59;;;;;;;;;36.00;31.00;;;;;13.08;100.00;100176.63;5035657;28;67549;-74
2023/04/22 08:07:25;;;;;;;;;33.75;27.50;;;;;13.14;100.00;100180.13;5028278;28;61139;-75
2023/04/22 08:09:51;;;;;;;;;31.00;27.00;;;;;13.22;100.00;100167.72;5010319;28;45456;-73
2023/04/22 08:12:16;;;;;;;;;24.50;23.25;;;;;13.36;100.00;100174.59;5031120;28;46618;-74
2023/04/22 08:14:41;;;;;;;;;21.25;21.25;;;;;13.49;100.00;100185.09;5035483;28;45810;-74
2023/04/22 08:17:07;;;;;;;;;26.75;21.50;;;;;13.57;100.00;100183.22;5033358;28;53715;-73
2023/04/22 08:19:32;;;;;;;;;32.75;27.25;;;;;13.66;100.00;100179.59;5035968;28;56936;-73
2023/04/22 08:21:57;;;;;;;;;23.50;15.75;;;;;13.76;100.00;100191.84;5033409;28;63863;-75
2023/04/22 08:24:23;;;;;;;;;25.75;20.50;;;;;13.81;100.00;100187.34;5017430;28;48733;-74
2023/04/22 08:26:48;;;;;;;;;32.00;27.00;;;;;13.87;100.00;100196.09;5031327;28;61198;-72
2023/04/22 08:29:13;;;;;;;;;28.25;22.50;;;;;13.93;100.00;100191.63;5035667;28;61970;-74
2023/04/22 08:31:39;;;;;;;;;28.25;24.50;;;;;14.00;100.00;100193.28;5036133;28;59349;-72
2023/04/22 08:34:04;;;;;;;;;32.75;25.00;;;;;14.06;100.00;100194.09;5035266;28;45406;-73
2023/04/22 08:36:30;;;;;;;;;29.75;25.50;;;;;14.11;100.00;100194.94;5035491;28;60546;-73
2023/04/22 08:38:56;;;;;;;;;29.00;24.50;;;;;14.16;100.00;100192.19;5001276;28;45429;-73
2023/04/22 08:41:23;;;;;;;;;32.75;25.00;;;;;14.19;100.00;100191.28;5019568;28;46063;-73
2023/04/22 08:43:49;;;;;;;;;28.50;23.75;;;;;14.23;100.00;100203.63;5019608;28;45612;-73
2023/04/22 08:46:16;;;;;;;;;28.50;24.00;;;;;14.28;100.00;100204.44;5006529;28;45412;-73
2023/04/22 08:48:41;;;;;;;;;34.50;26.00;;;;;14.34;100.00;100204.34;5015179;28;45341;-73
2023/04/22 08:51:07;;;;;;;;;40.25;33.50;;;;;14.38;100.00;100200.72;5033552;28;45814;-73
2023/04/22 08:53:33;;;;;;;;;41.00;34.00;;;;;14.41;100.00;100200.69;5034952;28;45347;-73
2023/04/22 08:55:58;;;;;;;;;50.00;37.75;;;;;14.41;100.00;100204.22;5033456;28;45701;-73
2023/04/22 08:58:24;;;;;;;;;45.00;37.50;;;;;14.36;100.00;100208.72;5032806;28;45490;-72
2023/04/22 09:00:49;;;;;;;;;44.50;34.75;;;;;14.31;100.00;100215.00;5033703;28;46425;-72
2023/04/22 09:03:15;;;;;;;;;44.75;33.25;;;;;14.26;100.00;100215.06;5015608;28;45482;-73
2023/04/22 09:05:41;;;;;;;;;46.25;35.00;;;;;14.26;100.00;100231.00;5015653;28;45348;-74
2023/04/22 09:08:08;;;;;;;;;43.25;34.25;;;;;14.14;100.00;100224.06;5030668;28;46286;-73
2023/04/22 09:10:37;;;;;;;;;40.00;35.00;;;;;14.04;100.00;100230.41;5008565;28;45934;-72
2023/04/22 09:13:05;;;;;;;;;49.25;38.25;;;;;13.96;100.00;100228.75;5015861;28;45476;-72
2023/04/22 09:15:30;;;;;;;;;46.00;38.00;;;;;13.92;100.00;100238.53;5015745;28;45479;-73
2023/04/22 09:17:57;;;;;;;;;44.75;37.25;;;;;13.92;100.00;100245.59;5015442;28;45389;-74
2023/04/22 09:20:26;;;;;;;;;43.25;36.25;;;;;13.93;100.00;100237.63;5036912;28;45965;-73
2023/04/22 09:22:52;;;;;;;;;41.00;33.25;;;;;13.95;100.00;100241.13;5038338;28;45359;-73
2023/04/22 09:25:19;;;;;;;;;42.50;37.50;;;;;13.99;100.00;100237.53;5039592;28;45322;-73
2023/04/22 09:27:49;;;;;;;;;47.00;38.75;;;;;14.01;100.00;100241.06;5020432;28;45269;-74
2023/04/22 09:30:17;;;;;;;;;39.25;31.75;;;;;14.01;100.00;100245.47;5037261;28;46727;-76
2023/04/22 09:32:50;;;;;;;;;52.50;38.50;;;;;14.00;100.00;100247.25;5035848;28;45343;-74
2023/04/22 09:35:22;;;;;;;;;39.75;33.75;;;;;14.04;100.00;100246.31;5031563;28;45536;-74
2023/04/22 09:37:51;;;;;;;;;46.50;36.25;;;;;14.06;100.00;100249.84;5016574;28;45444;-75
2023/04/22 09:40:17;;;;;;;;;42.75;35.50;;;;;14.14;100.00;100260.38;5033163;28;45937;-74
2023/04/22 09:42:51;;;;;;;;;46.25;36.00;;;;;14.15;100.00;100260.34;4999888;28;45520;-75
2023/04/22 09:45:30;;;;;;;;;47.25;37.75;;;;;14.13;100.00;100266.59;5032266;28;45454;-73
2023/04/22 09:47:56;;;;;;;;;43.75;35.00;;;;;14.11;100.00;100276.31;5009774;28;45469;-75
2023/04/22 09:50:27;;;;;;;;;41.50;35.25;;;;;14.11;100.00;100285.19;5011578;28;46390;-74
2023/04/22 09:52:54;;;;;;;;;47.50;38.00;;;;;14.13;100.00;100282.50;5032551;28;45337;-74
2023/04/22 09:55:22;;;;;;;;;43.00;33.50;;;;;14.15;100.00;100278.91;5034024;28;45442;-77
2023/04/22 09:57:50;;;;;;;;;37.25;34.00;;;;;14.25;100.00;100286.78;5015719;28;45619;-78
2023/04/22 10:00:17;;;;;;;;;39.00;32.50;;;;;14.36;100.00;100299.00;4996397;28;47793;-76
2023/04/22 10:02:42;;;;;;;;;39.25;34.25;;;;;14.50;100.00;100301.53;5029967;28;45503;-76
2023/04/22 10:05:09;;;;;;;;;47.75;35.75;;;;;14.65;100.00;100309.31;4997767;28;57149;-79
2023/04/22 10:07:34;;;;;;;;;47.50;36.25;;;;;14.77;100.00;100308.25;4998455;28;45627;-76
2023/04/22 10:10:00;;;;;;;;;38.50;33.50;;;;;14.84;100.00;100307.22;5012719;28;45584;-78
2023/04/22 10:12:26;;;;;;;;;45.25;35.50;;;;;14.89;100.00;100312.50;5014738;28;45516;-76
2023/04/22 10:14:51;;;;;;;;;38.00;32.50;;;;;14.93;100.00;100308.88;5026339;28;54006;-75
2023/04/22 10:17:18;;;;;;;;;35.00;33.00;;;;;14.96;100.00;100307.94;5032923;28;56448;-75
2023/04/22 10:19:45;;;;;;;;;35.25;31.50;;;;;14.98;100.00;100316.81;5012929;28;69586;-74
2023/04/22 10:22:11;;;;;;;;;34.75;34.00;;;;;15.02;100.00;100310.50;5008285;28;46407;-78
2023/04/22 10:24:38;;;;;;;;;37.50;29.75;;;;;15.00;100.00;100314.97;5014849;28;45549;-77
2023/04/22 10:27:09;;;;;;;;;38.50;29.25;;;;;15.04;100.00;100322.03;5013499;28;45651;-76
2023/04/22 10:29:37;;;;;;;;;41.75;34.75;;;;;15.03;100.00;100317.59;5016157;28;46476;-78
2023/04/22 10:32:23;;;;;;;;;40.25;34.00;;;;;15.05;100.00;100324.66;4999315;28;46033;-73
2023/04/22 10:34:49;;;;;;;;;30.50;28.25;;;;;15.10;100.00;100317.47;5029983;28;45425;-73
2023/04/22 10:37:19;;;;;;;;;34.25;25.25;;;;;15.10;100.00;100314.81;5016378;28;45353;-72
2023/04/22 10:40:06;;;;;;;;;27.50;25.75;;;;;15.08;100.00;100321.94;5036776;28;45763;-72
2023/04/22 10:42:32;;;;;;;;;34.75;29.00;;;;;15.01;100.00;100317.59;5017044;28;45459;-74
2023/04/22 10:45:03;;;;;;;;;27.25;25.75;;;;;14.99;100.00;100324.75;5033166;28;59756;-75
2023/04/22 10:47:28;;;;;;;;;33.50;26.50;;;;;14.96;100.00;100322.13;5010948;28;45362;-72
2023/04/22 10:50:28;;;;;;;;;25.75;25.00;;;;;14.98;100.00;100328.31;5007447;28;47593;-73
2023/04/22 10:53:20;;;;;;;;;27.00;24.75;;;;;14.97;100.00;100336.28;5035557;28;45533;-73
2023/04/22 10:55:52;;;;;;;;;27.75;25.00;;;;;15.05;100.00;100339.72;5026870;28;45392;-73
2023/04/22 10:58:19;;;;;;;;;30.00;27.50;;;;;15.14;100.00;100336.94;5038337;28;45520;-73
2023/04/22 11:00:44;;;;;;;;;28.50;23.00;;;;;15.24;100.00;100350.97;5036767;28;45554;-73
2023/04/22 11:03:12;;;;;;;;;30.75;26.50;;;;;15.31;100.00;100339.31;5020469;28;45463;-73